sensor_id;sensor_type;location;lat;lon;timestamp;temperature;humidity
69009;SHT31;56065;52.472;13.380;2024-03-29T00:02:06;10.63;74.94
69009;SHT31;56065;52.472;13.380;2024-03-29T00:04:32;10.57;75.04
69009;SHT31;56065;52.472;13.380;2024-03-29T00:06:57;10.60;75.24
69009;SHT31;56065;52.472;13.380;2024-03-29T00:09:22;10.67;75.14
69009;SHT31;56065;52.472;13.380;2024-03-29T00:11:47;10.69;74.85
69009;SHT31;56065;52.472;13.380;2024-03-29T00:14:13;10.69;74.64
69009;SHT31;56065;52.472;13.380;2024-03-29T00:16:38;10.76;74.71
69009;SHT31;56065;52.472;13.380;2024-03-29T00:19:03;10.74;74.46
69009;SHT31;56065;52.472;13.380;2024-03-29T00:21:28;10.84;74.12
69009;SHT31;56065;52.472;13.380;2024-03-29T00:23:54;10.88;73.82
69009;SHT31;56065;52.472;13.380;2024-03-29T00:26:19;10.95;73.35
69009;SHT31;56065;52.472;13.380;2024-03-29T00:28:44;11.01;73.17
69009;SHT31;56065;52.472;13.380;2024-03-29T00:31:10;11.06;73.17
69009;SHT31;56065;52.472;13.380;2024-03-29T00:33:35;11.03;73.99
69009;SHT31;56065;52.472;13.380;2024-03-29T00:36:01;10.92;74.77
69009;SHT31;56065;52.472;13.380;2024-03-29T00:38:26;10.81;75.87
69009;SHT31;56065;52.472;13.380;2024-03-29T00:40:51;10.64;76.19
69009;SHT31;56065;52.472;13.380;2024-03-29T00:43:17;10.51;76.62
69009;SHT31;56065;52.472;13.380;2024-03-29T00:45:42;10.41;77.20
69009;SHT31;56065;52.472;13.380;2024-03-29T00:48:07;10.27;77.88
69009;SHT31;56065;52.472;13.380;2024-03-29T00:50:33;10.17;78.71
69009;SHT31;56065;52.472;13.380;2024-03-29T00:52:59;9.99;79.45
69009;SHT31;56065;52.472;13.380;2024-03-29T00:55:24;9.82;80.24
69009;SHT31;56065;52.472;13.380;2024-03-29T00:57:50;9.79;80.54
69009;SHT31;56065;52.472;13.380;2024-03-29T01:00:15;9.68;81.04
69009;SHT31;56065;52.472;13.380;2024-03-29T01:02:40;9.56;81.73
69009;SHT31;56065;52.472;13.380;2024-03-29T01:05:06;9.49;81.88
69009;SHT31;56065;52.472;13.380;2024-03-29T01:07:32;9.42;82.31
69009;SHT31;56065;52.472;13.380;2024-03-29T01:09:57;9.36;82.64
69009;SHT31;56065;52.472;13.380;2024-03-29T01:12:23;9.31;83.21
69009;SHT31;56065;52.472;13.380;2024-03-29T01:14:48;9.32;82.70
69009;SHT31;56065;52.472;13.380;2024-03-29T01:17:14;9.22;83.11
69009;SHT31;56065;52.472;13.380;2024-03-29T01:19:39;9.18;82.94
69009;SHT31;56065;52.472;13.380;2024-03-29T01:22:04;9.13;82.98
69009;SHT31;56065;52.472;13.380;2024-03-29T01:24:29;9.07;83.38
69009;SHT31;56065;52.472;13.380;2024-03-29T01:26:55;8.99;83.62
69009;SHT31;56065;52.472;13.380;2024-03-29T01:29:20;8.90;83.81
69009;SHT31;56065;52.472;13.380;2024-03-29T01:31:45;8.84;84.21
69009;SHT31;56065;52.472;13.380;2024-03-29T01:34:11;8.80;84.31
69009;SHT31;56065;52.472;13.380;2024-03-29T01:36:36;8.77;84.56
69009;SHT31;56065;52.472;13.380;2024-03-29T01:39:02;8.70;84.35
69009;SHT31;56065;52.472;13.380;2024-03-29T01:41:27;8.67;84.52
69009;SHT31;56065;52.472;13.380;2024-03-29T01:43:53;8.59;84.60
69009;SHT31;56065;52.472;13.380;2024-03-29T01:46:20;8.54;84.78
69009;SHT31;56065;52.472;13.380;2024-03-29T01:48:46;8.53;84.81
69009;SHT31;56065;52.472;13.380;2024-03-29T01:51:13;8.49;84.88
69009;SHT31;56065;52.472;13.380;2024-03-29T01:53:40;8.46;84.65
69009;SHT31;56065;52.472;13.380;2024-03-29T01:56:05;8.43;84.73
69009;SHT31;56065;52.472;13.380;2024-03-29T01:58:32;8.41;84.68
69009;SHT31;56065;52.472;13.380;2024-03-29T02:00:58;8.41;84.42
69009;SHT31;56065;52.472;13.380;2024-03-29T02:03:24;8.41;84.51
69009;SHT31;56065;52.472;13.380;2024-03-29T02:05:50;8.39;84.35
69009;SHT31;56065;52.472;13.380;2024-03-29T02:08:16;8.41;84.26
69009;SHT31;56065;52.472;13.380;2024-03-29T02:10:43;8.35;84.40
69009;SHT31;56065;52.472;13.380;2024-03-29T02:13:08;8.38;84.04
69009;SHT31;56065;52.472;13.380;2024-03-29T02:15:34;8.36;83.89
69009;SHT31;56065;52.472;13.380;2024-03-29T02:17:59;8.35;83.88
69009;SHT31;56065;52.472;13.380;2024-03-29T02:20:25;8.33;83.75
69009;SHT31;56065;52.472;13.380;2024-03-29T02:22:54;8.35;83.69
69009;SHT31;56065;52.472;13.380;2024-03-29T02:25:20;8.36;83.43
69009;SHT31;56065;52.472;13.380;2024-03-29T02:27:47;8.35;83.23
69009;SHT31;56065;52.472;13.380;2024-03-29T02:30:13;8.35;83.10
69009;SHT31;56065;52.472;13.380;2024-03-29T02:32:39;8.42;82.58
69009;SHT31;56065;52.472;13.380;2024-03-29T02:35:05;8.46;82.37
69009;SHT31;56065;52.472;13.380;2024-03-29T02:37:30;8.42;82.39
69009;SHT31;56065;52.472;13.380;2024-03-29T02:39:55;8.38;82.51
69009;SHT31;56065;52.472;13.380;2024-03-29T02:42:21;8.33;82.68
69009;SHT31;56065;52.472;13.380;2024-03-29T02:44:46;8.28;82.75
69009;SHT31;56065;52.472;13.380;2024-03-29T02:47:11;8.20;82.95
69009;SHT31;56065;52.472;13.380;2024-03-29T02:49:37;8.16;82.98
69009;SHT31;56065;52.472;13.380;2024-03-29T02:52:02;8.11;83.20
69009;SHT31;56065;52.472;13.380;2024-03-29T02:54:27;8.11;83.21
69009;SHT31;56065;52.472;13.380;2024-03-29T02:56:53;8.09;83.09
69009;SHT31;56065;52.472;13.380;2024-03-29T02:59:18;8.05;83.07
69009;SHT31;56065;52.472;13.380;2024-03-29T03:01:43;8.01;83.22
69009;SHT31;56065;52.472;13.380;2024-03-29T03:04:08;7.99;83.11
69009;SHT31;56065;52.472;13.380;2024-03-29T03:06:34;7.97;83.23
69009;SHT31;56065;52.472;13.380;2024-03-29T03:08:59;7.95;83.16
69009;SHT31;56065;52.472;13.380;2024-03-29T03:11:42;7.90;83.22
69009;SHT31;56065;52.472;13.380;2024-03-29T03:14:08;7.88;83.38
69009;SHT31;56065;52.472;13.380;2024-03-29T03:16:33;7.87;83.32
69009;SHT31;56065;52.472;13.380;2024-03-29T03:18:58;7.77;83.45
69009;SHT31;56065;52.472;13.380;2024-03-29T03:21:24;7.77;83.43
69009;SHT31;56065;52.472;13.380;2024-03-29T03:23:50;7.77;83.31
69009;SHT31;56065;52.472;13.380;2024-03-29T03:26:15;7.71;83.58
69009;SHT31;56065;52.472;13.380;2024-03-29T03:28:40;7.71;83.38
69009;SHT31;56065;52.472;13.380;2024-03-29T03:31:06;7.67;83.20
69009;SHT31;56065;52.472;13.380;2024-03-29T03:33:32;7.63;83.24
69009;SHT31;56065;52.472;13.380;2024-03-29T03:35:57;7.66;83.48
69009;SHT31;56065;52.472;13.380;2024-03-29T03:38:23;7.61;83.36
69009;SHT31;56065;52.472;13.380;2024-03-29T03:40:48;7.64;83.28
69009;SHT31;56065;52.472;13.380;2024-03-29T03:43:13;7.63;83.21
69009;SHT31;56065;52.472;13.380;2024-03-29T03:45:39;7.61;83.36
69009;SHT31;56065;52.472;13.380;2024-03-29T03:48:07;7.60;83.16
69009;SHT31;56065;52.472;13.380;2024-03-29T03:50:32;7.57;83.24
69009;SHT31;56065;52.472;13.380;2024-03-29T03:52:58;7.56;83.11
69009;SHT31;56065;52.472;13.380;2024-03-29T03:55:23;7.54;83.09
69009;SHT31;56065;52.472;13.380;2024-03-29T03:57:48;7.53;83.28
69009;SHT31;56065;52.472;13.380;2024-03-29T04:00:14;7.50;83.11
69009;SHT31;56065;52.472;13.380;2024-03-29T04:02:39;7.44;83.15
69009;SHT31;56065;52.472;13.380;2024-03-29T04:05:06;7.43;83.10
69009;SHT31;56065;52.472;13.380;2024-03-29T04:07:31;7.42;83.08
69009;SHT31;56065;52.472;13.380;2024-03-29T04:09:56;7.46;83.07
69009;SHT31;56065;52.472;13.380;2024-03-29T04:12:22;7.42;83.11
69009;SHT31;56065;52.472;13.380;2024-03-29T04:14:47;7.46;83.02
69009;SHT31;56065;52.472;13.380;2024-03-29T04:17:12;7.42;83.06
69009;SHT31;56065;52.472;13.380;2024-03-29T04:19:38;7.40;83.02
69009;SHT31;56065;52.472;13.380;2024-03-29T04:22:03;7.42;82.77
69009;SHT31;56065;52.472;13.380;2024-03-29T04:24:29;7.39;82.75
69009;SHT31;56065;52.472;13.380;2024-03-29T04:26:54;7.40;82.82
69009;SHT31;56065;52.472;13.380;2024-03-29T04:29:19;7.37;82.69
69009;SHT31;56065;52.472;13.380;2024-03-29T04:31:47;7.36;82.65
69009;SHT31;56065;52.472;13.380;2024-03-29T04:34:13;7.40;82.56
69009;SHT31;56065;52.472;13.380;2024-03-29T04:36:38;7.42;82.56
69009;SHT31;56065;52.472;13.380;2024-03-29T04:39:04;7.42;82.35
69009;SHT31;56065;52.472;13.380;2024-03-29T04:41:29;7.44;82.25
69009;SHT31;56065;52.472;13.380;2024-03-29T04:43:59;7.49;82.16
69009;SHT31;56065;52.472;13.380;2024-03-29T04:46:24;7.51;81.97
69009;SHT31;56065;52.472;13.380;2024-03-29T04:48:50;7.53;81.86
69009;SHT31;56065;52.472;13.380;2024-03-29T04:51:15;7.54;81.74
69009;SHT31;56065;52.472;13.380;2024-03-29T04:53:41;7.54;81.72
69009;SHT31;56065;52.472;13.380;2024-03-29T04:56:06;7.61;81.73
69009;SHT31;56065;52.472;13.380;2024-03-29T04:58:32;7.60;81.53
69009;SHT31;56065;52.472;13.380;2024-03-29T05:00:58;7.66;81.37
69009;SHT31;56065;52.472;13.380;2024-03-29T05:03:23;7.70;81.27
69009;SHT31;56065;52.472;13.380;2024-03-29T05:05:52;7.70;81.28
69009;SHT31;56065;52.472;13.380;2024-03-29T05:08:18;7.75;81.34
69009;SHT31;56065;52.472;13.380;2024-03-29T05:10:50;7.78;81.29
69009;SHT31;56065;52.472;13.380;2024-03-29T05:13:16;7.84;81.12
69009;SHT31;56065;52.472;13.380;2024-03-29T05:15:42;7.88;81.00
69009;SHT31;56065;52.472;13.380;2024-03-29T05:18:07;7.91;80.70
69009;SHT31;56065;52.472;13.380;2024-03-29T05:20:33;7.98;80.62
69009;SHT31;56065;52.472;13.380;2024-03-29T05:22:59;8.04;80.61
69009;SHT31;56065;52.472;13.380;2024-03-29T05:25:24;8.05;80.58
69009;SHT31;56065;52.472;13.380;2024-03-29T05:27:50;8.06;80.58
69009;SHT31;56065;52.472;13.380;2024-03-29T05:30:15;8.08;80.60
69009;SHT31;56065;52.472;13.380;2024-03-29T05:32:41;8.15;80.46
69009;SHT31;56065;52.472;13.380;2024-03-29T05:35:07;8.16;80.35
69009;SHT31;56065;52.472;13.380;2024-03-29T05:37:33;8.26;80.16
69009;SHT31;56065;52.472;13.380;2024-03-29T05:39:59;8.28;80.14
69009;SHT31;56065;52.472;13.380;2024-03-29T05:42:26;8.32;80.09
69009;SHT31;56065;52.472;13.380;2024-03-29T05:44:53;8.36;80.11
69009;SHT31;56065;52.472;13.380;2024-03-29T05:47:18;8.39;79.81
69009;SHT31;56065;52.472;13.380;2024-03-29T05:49:43;8.48;79.67
69009;SHT31;56065;52.472;13.380;2024-03-29T05:52:09;8.52;79.60
69009;SHT31;56065;52.472;13.380;2024-03-29T05:54:34;8.57;79.66
69009;SHT31;56065;52.472;13.380;2024-03-29T05:56:59;8.64;79.50
69009;SHT31;56065;52.472;13.380;2024-03-29T05:59:24;8.73;79.39
69009;SHT31;56065;52.472;13.380;2024-03-29T06:01:50;8.84;78.87
69009;SHT31;56065;52.472;13.380;2024-03-29T06:04:15;8.91;78.72
69009;SHT31;56065;52.472;13.380;2024-03-29T06:06:41;8.99;78.32
69009;SHT31;56065;52.472;13.380;2024-03-29T06:09:06;9.07;78.34
69009;SHT31;56065;52.472;13.380;2024-03-29T06:11:31;9.21;78.30
69009;SHT31;56065;52.472;13.380;2024-03-29T06:13:57;9.34;78.03
69009;SHT31;56065;52.472;13.380;2024-03-29T06:16:25;9.41;77.27
69009;SHT31;56065;52.472;13.380;2024-03-29T06:19:09;9.58;77.20
69009;SHT31;56065;52.472;13.380;2024-03-29T06:21:34;9.69;76.57
69009;SHT31;56065;52.472;13.380;2024-03-29T06:24:11;9.76;76.18
69009;SHT31;56065;52.472;13.380;2024-03-29T06:26:40;9.85;76.16
69009;SHT31;56065;52.472;13.380;2024-03-29T06:29:07;9.94;76.13
69009;SHT31;56065;52.472;13.380;2024-03-29T06:31:35;10.03;75.57
69009;SHT31;56065;52.472;13.380;2024-03-29T06:34:00;10.09;75.46
69009;SHT31;56065;52.472;13.380;2024-03-29T06:36:26;10.16;75.40
69009;SHT31;56065;52.472;13.380;2024-03-29T06:38:52;10.21;74.97
69009;SHT31;56065;52.472;13.380;2024-03-29T06:41:17;10.33;75.21
69009;SHT31;56065;52.472;13.380;2024-03-29T06:43:43;10.41;74.78
69009;SHT31;56065;52.472;13.380;2024-03-29T06:46:12;10.48;74.59
69009;SHT31;56065;52.472;13.380;2024-03-29T06:48:37;10.63;74.48
69009;SHT31;56065;52.472;13.380;2024-03-29T06:51:03;10.78;73.85
69009;SHT31;56065;52.472;13.380;2024-03-29T06:53:29;10.94;73.41
69009;SHT31;56065;52.472;13.380;2024-03-29T06:55:55;11.08;73.14
69009;SHT31;56065;52.472;13.380;2024-03-29T06:58:22;11.23;72.43
69009;SHT31;56065;52.472;13.380;2024-03-29T07:00:47;11.44;72.56
69009;SHT31;56065;52.472;13.380;2024-03-29T07:03:14;11.59;71.77
69009;SHT31;56065;52.472;13.380;2024-03-29T07:05:40;11.66;71.36
69009;SHT31;56065;52.472;13.380;2024-03-29T07:08:06;11.62;71.78
69009;SHT31;56065;52.472;13.380;2024-03-29T07:10:31;11.59;71.36
69009;SHT31;56065;52.472;13.380;2024-03-29T07:12:56;11.50;71.61
69009;SHT31;56065;52.472;13.380;2024-03-29T07:15:22;11.43;72.00
69009;SHT31;56065;52.472;13.380;2024-03-29T07:17:47;11.43;72.04
69009;SHT31;56065;52.472;13.380;2024-03-29T07:20:15;11.40;71.98
69009;SHT31;56065;52.472;13.380;2024-03-29T07:22:40;11.37;72.19
69009;SHT31;56065;52.472;13.380;2024-03-29T07:25:06;11.37;72.00
69009;SHT31;56065;52.472;13.380;2024-03-29T07:27:31;11.40;72.05
69009;SHT31;56065;52.472;13.380;2024-03-29T07:29:59;11.44;71.61
69009;SHT31;56065;52.472;13.380;2024-03-29T07:32:24;11.44;70.92
69009;SHT31;56065;52.472;13.380;2024-03-29T07:34:50;11.39;71.24
69009;SHT31;56065;52.472;13.380;2024-03-29T07:37:15;11.36;71.37
69009;SHT31;56065;52.472;13.380;2024-03-29T07:39:41;11.42;71.89
69009;SHT31;56065;52.472;13.380;2024-03-29T07:42:08;11.43;72.19
69009;SHT31;56065;52.472;13.380;2024-03-29T07:44:33;11.62;71.90
69009;SHT31;56065;52.472;13.380;2024-03-29T07:46:58;11.67;71.46
69009;SHT31;56065;52.472;13.380;2024-03-29T07:49:23;11.67;70.93
69009;SHT31;56065;52.472;13.380;2024-03-29T07:51:49;11.78;70.94
69009;SHT31;56065;52.472;13.380;2024-03-29T07:54:14;11.83;70.52
69009;SHT31;56065;52.472;13.380;2024-03-29T07:56:40;11.87;70.64
69009;SHT31;56065;52.472;13.380;2024-03-29T07:59:05;11.99;70.61
69009;SHT31;56065;52.472;13.380;2024-03-29T08:01:31;11.99;70.09
69009;SHT31;56065;52.472;13.380;2024-03-29T08:03:56;12.10;70.07
69009;SHT31;56065;52.472;13.380;2024-03-29T08:06:22;12.12;70.23
69009;SHT31;56065;52.472;13.380;2024-03-29T08:08:48;12.08;69.61
69009;SHT31;56065;52.472;13.380;2024-03-29T08:11:14;12.17;69.97
69009;SHT31;56065;52.472;13.380;2024-03-29T08:13:39;12.17;70.28
69009;SHT31;56065;52.472;13.380;2024-03-29T08:16:05;12.20;70.30
69009;SHT31;56065;52.472;13.380;2024-03-29T08:18:31;12.32;70.55
69009;SHT31;56065;52.472;13.380;2024-03-29T08:20:57;12.38;70.37
69009;SHT31;56065;52.472;13.380;2024-03-29T08:23:23;12.46;70.38
69009;SHT31;56065;52.472;13.380;2024-03-29T08:25:49;12.55;70.29
69009;SHT31;56065;52.472;13.380;2024-03-29T08:28:16;12.66;70.05
69009;SHT31;56065;52.472;13.380;2024-03-29T08:30:41;12.75;70.43
69009;SHT31;56065;52.472;13.380;2024-03-29T08:33:07;12.86;69.98
69009;SHT31;56065;52.472;13.380;2024-03-29T08:35:33;12.96;70.40
69009;SHT31;56065;52.472;13.380;2024-03-29T08:37:59;13.03;70.27
69009;SHT31;56065;52.472;13.380;2024-03-29T08:40:27;13.17;70.18
69009;SHT31;56065;52.472;13.380;2024-03-29T08:42:54;13.34;69.67
69009;SHT31;56065;52.472;13.380;2024-03-29T08:45:19;13.57;69.62
69009;SHT31;56065;52.472;13.380;2024-03-29T08:47:46;13.81;68.94
69009;SHT31;56065;52.472;13.380;2024-03-29T08:50:12;14.01;68.41
69009;SHT31;56065;52.472;13.380;2024-03-29T08:52:38;14.15;68.67
69009;SHT31;56065;52.472;13.380;2024-03-29T08:55:04;14.36;68.13
69009;SHT31;56065;52.472;13.380;2024-03-29T08:57:30;14.54;68.04
69009;SHT31;56065;52.472;13.380;2024-03-29T08:59:55;14.68;67.36
69009;SHT31;56065;52.472;13.380;2024-03-29T09:02:20;14.78;67.10
69009;SHT31;56065;52.472;13.380;2024-03-29T09:04:45;14.68;66.67
69009;SHT31;56065;52.472;13.380;2024-03-29T09:07:11;14.70;66.60
69009;SHT31;56065;52.472;13.380;2024-03-29T09:09:36;14.91;67.24
69009;SHT31;56065;52.472;13.380;2024-03-29T09:12:05;15.08;66.45
69009;SHT31;56065;52.472;13.380;2024-03-29T09:14:30;15.14;66.11
69009;SHT31;56065;52.472;13.380;2024-03-29T09:16:55;15.16;65.99
69009;SHT31;56065;52.472;13.380;2024-03-29T09:19:21;15.12;65.28
69009;SHT31;56065;52.472;13.380;2024-03-29T09:21:46;15.22;65.36
69009;SHT31;56065;52.472;13.380;2024-03-29T09:24:12;15.38;64.90
69009;SHT31;56065;52.472;13.380;2024-03-29T09:26:37;15.34;64.49
69009;SHT31;56065;52.472;13.380;2024-03-29T09:29:02;15.22;64.50
69009;SHT31;56065;52.472;13.380;2024-03-29T09:31:28;15.24;65.54
69009;SHT31;56065;52.472;13.380;2024-03-29T09:33:53;15.32;65.13
69009;SHT31;56065;52.472;13.380;2024-03-29T09:36:22;15.31;64.40
69009;SHT31;56065;52.472;13.380;2024-03-29T09:38:51;15.16;64.79
69009;SHT31;56065;52.472;13.380;2024-03-29T09:41:25;15.25;65.23
69009;SHT31;56065;52.472;13.380;2024-03-29T09:43:52;15.35;64.10
69009;SHT31;56065;52.472;13.380;2024-03-29T09:46:20;15.45;64.06
69009;SHT31;56065;52.472;13.380;2024-03-29T09:48:47;15.46;63.39
69009;SHT31;56065;52.472;13.380;2024-03-29T09:51:14;15.28;63.63
69009;SHT31;56065;52.472;13.380;2024-03-29T09:53:41;15.25;63.99
69009;SHT31;56065;52.472;13.380;2024-03-29T09:56:07;15.12;63.52
69009;SHT31;56065;52.472;13.380;2024-03-29T09:58:34;15.05;63.22
69009;SHT31;56065;52.472;13.380;2024-03-29T10:01:00;15.04;63.54
69009;SHT31;56065;52.472;13.380;2024-03-29T10:03:28;15.12;64.21
69009;SHT31;56065;52.472;13.380;2024-03-29T10:05:58;15.16;63.73
69009;SHT31;56065;52.472;13.380;2024-03-29T10:08:26;14.95;63.95
69009;SHT31;56065;52.472;13.380;2024-03-29T10:10:52;14.85;64.95
69009;SHT31;56065;52.472;13.380;2024-03-29T10:13:18;14.74;66.64
69009;SHT31;56065;52.472;13.380;2024-03-29T10:15:43;14.63;66.52
69009;SHT31;56065;52.472;13.380;2024-03-29T10:18:14;14.41;66.85
69009;SHT31;56065;52.472;13.380;2024-03-29T10:20:39;14.10;68.93
69009;SHT31;56065;52.472;13.380;2024-03-29T10:23:05;13.93;69.65
69009;SHT31;56065;52.472;13.380;2024-03-29T10:25:33;13.90;70.91
69009;SHT31;56065;52.472;13.380;2024-03-29T10:28:01;13.98;70.60
69009;SHT31;56065;52.472;13.380;2024-03-29T10:30:28;13.89;70.04
69009;SHT31;56065;52.472;13.380;2024-03-29T10:32:57;13.85;70.62
69009;SHT31;56065;52.472;13.380;2024-03-29T10:35:22;13.86;70.46
69009;SHT31;56065;52.472;13.380;2024-03-29T10:37:48;13.89;70.31
69009;SHT31;56065;52.472;13.380;2024-03-29T10:40:13;13.86;70.96
69009;SHT31;56065;52.472;13.380;2024-03-29T10:42:43;13.90;70.76
69009;SHT31;56065;52.472;13.380;2024-03-29T10:45:09;14.01;70.75
69009;SHT31;56065;52.472;13.380;2024-03-29T10:47:35;14.01;70.64
69009;SHT31;56065;52.472;13.380;2024-03-29T10:50:01;14.01;71.52
69009;SHT31;56065;52.472;13.380;2024-03-29T10:52:30;14.03;71.98
69009;SHT31;56065;52.472;13.380;2024-03-29T10:54:55;14.16;73.41
69009;SHT31;56065;52.472;13.380;2024-03-29T10:57:24;14.26;72.07
69009;SHT31;56065;52.472;13.380;2024-03-29T11:00:03;14.43;73.03
69009;SHT31;56065;52.472;13.380;2024-03-29T11:05:02;15.05;71.70
69009;SHT31;56065;52.472;13.380;2024-03-29T11:07:34;15.55;70.46
69009;SHT31;56065;52.472;13.380;2024-03-29T11:10:01;15.91;69.67
69009;SHT31;56065;52.472;13.380;2024-03-29T11:12:29;16.32;68.56
69009;SHT31;56065;52.472;13.380;2024-03-29T11:15:03;16.54;67.28
69009;SHT31;56065;52.472;13.380;2024-03-29T11:17:31;16.77;66.87
69009;SHT31;56065;52.472;13.380;2024-03-29T11:19:58;16.85;66.54
69009;SHT31;56065;52.472;13.380;2024-03-29T11:22:24;16.86;66.56
69009;SHT31;56065;52.472;13.380;2024-03-29T11:24:53;16.89;66.61
69009;SHT31;56065;52.472;13.380;2024-03-29T11:27:22;17.13;66.91
69009;SHT31;56065;52.472;13.380;2024-03-29T11:29:48;17.22;65.64
69009;SHT31;56065;52.472;13.380;2024-03-29T11:32:15;16.85;65.55
69009;SHT31;56065;52.472;13.380;2024-03-29T11:34:44;16.54;65.69
69009;SHT31;56065;52.472;13.380;2024-03-29T11:37:11;16.20;66.40
69009;SHT31;56065;52.472;13.380;2024-03-29T11:39:37;15.97;67.20
69009;SHT31;56065;52.472;13.380;2024-03-29T11:42:03;15.89;67.43
69009;SHT31;56065;52.472;13.380;2024-03-29T11:44:28;15.74;67.76
69009;SHT31;56065;52.472;13.380;2024-03-29T11:46:57;15.55;67.54
69009;SHT31;56065;52.472;13.380;2024-03-29T11:49:23;15.36;67.81
69009;SHT31;56065;52.472;13.380;2024-03-29T11:51:48;15.25;68.12
69009;SHT31;56065;52.472;13.380;2024-03-29T11:54:14;15.21;68.45
69009;SHT31;56065;52.472;13.380;2024-03-29T11:56:39;15.16;68.83
69009;SHT31;56065;52.472;13.380;2024-03-29T11:59:04;15.16;69.04
69009;SHT31;56065;52.472;13.380;2024-03-29T12:01:30;15.06;69.82
69009;SHT31;56065;52.472;13.380;2024-03-29T12:03:57;15.14;70.00
69009;SHT31;56065;52.472;13.380;2024-03-29T12:06:22;15.08;70.03
69009;SHT31;56065;52.472;13.380;2024-03-29T12:08:48;15.09;69.99
69009;SHT31;56065;52.472;13.380;2024-03-29T12:11:14;15.04;69.74
69009;SHT31;56065;52.472;13.380;2024-03-29T12:13:39;14.98;70.19
69009;SHT31;56065;52.472;13.380;2024-03-29T12:16:06;15.05;69.85
69009;SHT31;56065;52.472;13.380;2024-03-29T12:18:32;15.19;69.72
69009;SHT31;56065;52.472;13.380;2024-03-29T12:20:58;15.40;70.47
69009;SHT31;56065;52.472;13.380;2024-03-29T12:23:23;15.73;69.54
69009;SHT31;56065;52.472;13.380;2024-03-29T12:25:50;15.82;68.35
69009;SHT31;56065;52.472;13.380;2024-03-29T12:28:16;15.98;67.43
69009;SHT31;56065;52.472;13.380;2024-03-29T12:30:43;16.17;67.47
69009;SHT31;56065;52.472;13.380;2024-03-29T12:33:13;16.29;66.66
69009;SHT31;56065;52.472;13.380;2024-03-29T12:35:46;16.52;66.61
69009;SHT31;56065;52.472;13.380;2024-03-29T12:38:15;16.75;65.37
69009;SHT31;56065;52.472;13.380;2024-03-29T12:40:42;17.02;64.95
69009;SHT31;56065;52.472;13.380;2024-03-29T12:43:09;17.31;64.65
69009;SHT31;56065;52.472;13.380;2024-03-29T12:45:36;18.09;63.97
69009;SHT31;56065;52.472;13.380;2024-03-29T12:48:01;18.74;62.20
69009;SHT31;56065;52.472;13.380;2024-03-29T12:50:29;19.18;60.44
69009;SHT31;56065;52.472;13.380;2024-03-29T12:52:56;19.29;60.61
69009;SHT31;56065;52.472;13.380;2024-03-29T12:55:22;19.26;59.51
69009;SHT31;56065;52.472;13.380;2024-03-29T12:57:48;19.05;60.22
69009;SHT31;56065;52.472;13.380;2024-03-29T13:00:14;18.97;59.68
69009;SHT31;56065;52.472;13.380;2024-03-29T13:02:40;18.77;59.19
69009;SHT31;56065;52.472;13.380;2024-03-29T13:05:06;18.73;60.40
69009;SHT31;56065;52.472;13.380;2024-03-29T13:07:32;18.68;59.31
69009;SHT31;56065;52.472;13.380;2024-03-29T13:09:59;18.63;59.77
69009;SHT31;56065;52.472;13.380;2024-03-29T13:12:28;18.21;59.25
69009;SHT31;56065;52.472;13.380;2024-03-29T13:14:53;17.98;59.85
69009;SHT31;56065;52.472;13.380;2024-03-29T13:17:18;17.73;60.06
69009;SHT31;56065;52.472;13.380;2024-03-29T13:19:43;17.70;60.36
69009;SHT31;56065;52.472;13.380;2024-03-29T13:22:09;17.58;60.13
69009;SHT31;56065;52.472;13.380;2024-03-29T13:24:34;17.36;60.37
69009;SHT31;56065;52.472;13.380;2024-03-29T13:26:59;17.26;60.00
69009;SHT31;56065;52.472;13.380;2024-03-29T13:29:25;17.27;59.91
69009;SHT31;56065;52.472;13.380;2024-03-29T13:31:50;17.26;59.54
69009;SHT31;56065;52.472;13.380;2024-03-29T13:34:15;17.37;59.69
69009;SHT31;56065;52.472;13.380;2024-03-29T13:36:43;17.47;58.99
69009;SHT31;56065;52.472;13.380;2024-03-29T13:39:09;17.77;59.29
69009;SHT31;56065;52.472;13.380;2024-03-29T13:41:35;18.19;59.02
69009;SHT31;56065;52.472;13.380;2024-03-29T13:44:01;18.78;56.80
69009;SHT31;56065;52.472;13.380;2024-03-29T13:46:35;18.98;56.47
69009;SHT31;56065;52.472;13.380;2024-03-29T13:49:01;19.01;56.26
69009;SHT31;56065;52.472;13.380;2024-03-29T13:51:27;18.91;55.75
69009;SHT31;56065;52.472;13.380;2024-03-29T13:53:52;18.91;56.07
69009;SHT31;56065;52.472;13.380;2024-03-29T13:56:19;19.03;55.60
69009;SHT31;56065;52.472;13.380;2024-03-29T13:58:44;19.01;55.98
69009;SHT31;56065;52.472;13.380;2024-03-29T14:01:10;18.91;55.70
69009;SHT31;56065;52.472;13.380;2024-03-29T14:03:35;18.95;55.85
69009;SHT31;56065;52.472;13.380;2024-03-29T14:06:00;19.22;56.43
69009;SHT31;56065;52.472;13.380;2024-03-29T14:08:26;19.96;55.86
69009;SHT31;56065;52.472;13.380;2024-03-29T14:10:51;20.44;54.81
69009;SHT31;56065;52.472;13.380;2024-03-29T14:13:18;20.67;53.93
69009;SHT31;56065;52.472;13.380;2024-03-29T14:15:44;20.74;54.93
69009;SHT31;56065;52.472;13.380;2024-03-29T14:18:09;21.03;53.88
69009;SHT31;56065;52.472;13.380;2024-03-29T14:20:34;21.15;53.63
69009;SHT31;56065;52.472;13.380;2024-03-29T14:23:00;20.86;53.80
69009;SHT31;56065;52.472;13.380;2024-03-29T14:25:29;20.65;54.49
69009;SHT31;56065;52.472;13.380;2024-03-29T14:27:54;20.58;54.84
69009;SHT31;56065;52.472;13.380;2024-03-29T14:30:22;20.34;55.19
69009;SHT31;56065;52.472;13.380;2024-03-29T14:32:50;19.83;55.82
69009;SHT31;56065;52.472;13.380;2024-03-29T14:35:16;19.32;56.86
69009;SHT31;56065;52.472;13.380;2024-03-29T14:37:42;19.32;57.81
69009;SHT31;56065;52.472;13.380;2024-03-29T14:40:08;19.56;57.47
69009;SHT31;56065;52.472;13.380;2024-03-29T14:42:34;19.89;56.87
69009;SHT31;56065;52.472;13.380;2024-03-29T14:45:02;19.77;56.90
69009;SHT31;56065;52.472;13.380;2024-03-29T14:47:29;19.48;57.73
69009;SHT31;56065;52.472;13.380;2024-03-29T14:49:54;19.24;57.89
69009;SHT31;56065;52.472;13.380;2024-03-29T14:52:19;19.04;58.31
69009;SHT31;56065;52.472;13.380;2024-03-29T14:54:45;19.07;58.84
69009;SHT31;56065;52.472;13.380;2024-03-29T14:57:10;19.15;58.52
69009;SHT31;56065;52.472;13.380;2024-03-29T14:59:35;19.04;58.56
69009;SHT31;56065;52.472;13.380;2024-03-29T15:02:01;18.86;59.23
69009;SHT31;56065;52.472;13.380;2024-03-29T15:04:27;18.81;59.53
69009;SHT31;56065;52.472;13.380;2024-03-29T15:06:52;18.84;59.73
69009;SHT31;56065;52.472;13.380;2024-03-29T15:09:17;18.86;59.68
69009;SHT31;56065;52.472;13.380;2024-03-29T15:11:43;18.80;59.75
69009;SHT31;56065;52.472;13.380;2024-03-29T15:14:08;18.66;60.00
69009;SHT31;56065;52.472;13.380;2024-03-29T15:16:35;18.49;60.54
69009;SHT31;56065;52.472;13.380;2024-03-29T15:19:01;18.30;61.04